Time,TemperatureF,DewpointF,PressureIn,WindDirection,WindDirectionDegrees,WindSpeedMPH,WindSpeedGustMPH,Humidity,HourlyPrecipIn,Conditions,Clouds,dailyrainin,SolarRadiationWatts/m^2,SoftwareType,DateUTC
2013-09-09 00:12:00,62.0,55.0,-100.00,ENE,63,7.0,7.0,78,-99.99,,,-99.99,0.060000,,2013-09-09 06:12:00,
2013-09-09 00:21:00,61.0,55.0,-100.00,North,349,0.0,5.0,79,-99.99,,,-99.99,0.060000,,2013-09-09 06:21:00,
2013-09-09 00:42:00,61.0,55.0,-100.00,NW,319,2.0,3.0,81,-99.99,,,-99.99,0.070000,,2013-09-09 06:42:00,
2013-09-09 01:11:00,60.0,55.0,-100.00,NNW,335,0.0,0.0,83,-99.99,,,-99.99,0.010000,,2013-09-09 07:11:00,
2013-09-09 01:21:00,60.0,55.0,-100.00,SSW,199,1.0,2.0,85,-99.99,,,-99.99,0.010000,,2013-09-09 07:21:00,
2013-09-09 01:43:00,59.0,56.0,-100.00,SSW,195,2.0,3.0,88,-99.99,,,-99.99,0.000000,,2013-09-09 07:43:00,
2013-09-09 02:11:00,58.0,55.0,-100.00,South,178,4.0,5.0,90,-99.99,,,-99.99,0.000000,,2013-09-09 08:11:00,
2013-09-09 03:11:00,58.0,55.0,-100.00,NNW,330,3.0,4.0,91,-99.99,,,-99.99,0.000000,,2013-09-09 09:11:00,
2013-09-09 03:22:00,57.0,55.0,-100.00,NNW,331,5.0,5.0,91,-99.99,,,-99.99,0.000000,,2013-09-09 09:22:00,
2013-09-09 03:43:00,57.0,55.0,-100.00,North,360,3.0,4.0,91,-99.99,,,-99.99,0.000000,,2013-09-09 09:43:00,
2013-09-09 04:12:00,57.0,54.0,-100.00,North,353,1.0,2.0,91,-99.99,,,-99.99,0.000000,,2013-09-09 10:12:00,
2013-09-09 04:42:00,57.0,54.0,-100.00,SSE,149,1.0,1.0,92,-99.99,,,-99.99,0.000000,,2013-09-09 10:42:00,
2013-09-09 05:11:00,57.0,55.0,-100.00,NNW,341,0.0,1.0,92,-99.99,,,-99.99,0.000000,,2013-09-09 11:11:00,
2013-09-09 05:42:00,57.0,55.0,-100.00,South,190,3.0,4.0,92,-99.99,,,-99.99,0.000000,,2013-09-09 11:42:00,
2013-09-09 06:22:00,57.0,55.0,-100.00,South,185,2.0,3.0,92,-99.99,,,-99.99,0.000000,,2013-09-09 12:22:00,
2013-09-09 06:42:00,57.0,55.0,-100.00,ENE,66,2.0,2.0,92,-99.99,,,-99.99,0.000000,,2013-09-09 12:42:00,
2013-09-09 06:52:00,57.0,55.0,-100.00,SSE,152,2.0,3.0,92,-99.99,,,-99.99,0.000000,,2013-09-09 12:52:00,
2013-09-09 07:21:00,56.0,54.0,-100.00,NW,323,3.0,4.0,92,-99.99,,,-99.99,0.130000,,2013-09-09 13:21:00,
2013-09-09 07:42:00,57.0,55.0,-100.00,NE,54,2.0,2.0,92,-99.99,,,-99.99,1.270000,,2013-09-09 13:42:00,
2013-09-09 08:12:00,57.0,55.0,-100.00,North,358,4.0,4.0,92,-99.99,,,-99.99,18.740000,,2013-09-09 14:12:00,
2013-09-09 08:21:00,57.0,55.0,-100.00,North,4,5.0,6.0,93,-99.99,,,-99.99,23.879999,,2013-09-09 14:21:00,
2013-09-09 09:11:00,59.0,56.0,-100.00,North,2,0.0,2.0,90,-99.99,,,-99.99,107.400002,,2013-09-09 15:11:00,
2013-09-09 09:43:00,61.0,57.0,-100.00,East,87,1.0,2.0,86,-99.99,,,-99.99,155.000000,,2013-09-09 15:43:00,
2013-09-09 09:53:00,61.0,57.0,-100.00,East,87,1.0,2.0,86,-99.99,,,-99.99,155.000000,,2013-09-09 15:53:00,
2013-09-09 10:24:00,64.0,58.0,-100.00,NNW,346,1.0,3.0,80,-99.99,,,-99.99,447.500000,,2013-09-09 16:24:00,
2013-09-09 10:34:00,64.0,58.0,-100.00,NNW,346,1.0,3.0,80,-99.99,,,-99.99,447.500000,,2013-09-09 16:34:00,
2013-09-09 10:54:00,66.0,58.0,-100.00,NNW,327,2.0,6.0,74,-99.99,,,-99.99,536.099976,,2013-09-09 16:54:00,
2013-09-09 12:21:00,77.0,56.0,-100.00,East,82,2.0,4.0,47,-99.99,,,-99.99,834.000000,,2013-09-09 18:21:00,
2013-09-09 12:42:00,75.0,54.0,-100.00,SW,230,2.0,6.0,46,-99.99,,,-99.99,853.000000,,2013-09-09 18:42:00,
2013-09-09 13:11:00,77.0,48.0,-100.00,North,5,7.0,11.0,35,-99.99,,,-99.99,859.000000,,2013-09-09 19:11:00,
2013-09-09 13:22:00,77.0,48.0,-100.00,NNW,339,3.0,8.0,35,-99.99,,,-99.99,864.000000,,2013-09-09 19:22:00,
2013-09-09 13:42:00,78.0,47.0,-100.00,South,185,2.0,11.0,33,-99.99,,,-99.99,879.000000,,2013-09-09 19:42:00,
2013-09-09 14:42:00,81.0,45.0,-100.00,South,172,1.0,5.0,27,-99.99,,,-99.99,866.000000,,2013-09-09 20:42:00,
2013-09-09 16:24:00,74.0,49.0,-100.00,NNW,330,17.0,25.0,40,-99.99,,,-99.99,402.600006,,2013-09-09 22:24:00,
2013-09-09 16:43:00,75.0,44.0,-100.00,NW,318,18.0,23.0,32,-99.99,,,-99.99,282.200012,,2013-09-09 22:43:00,
2013-09-09 17:12:00,76.0,44.0,-100.00,NW,310,11.0,13.0,32,-99.99,,,-99.99,275.700012,,2013-09-09 23:12:00,
2013-09-09 17:22:00,75.0,42.0,-100.00,North,351,15.0,19.0,30,-99.99,,,-99.99,283.399994,,2013-09-09 23:22:00,
2013-09-09 17:42:00,76.0,42.0,-100.00,NNW,327,9.0,10.0,29,-99.99,,,-99.99,189.600006,,2013-09-09 23:42:00,
2013-09-09 18:21:00,76.0,45.0,-100.00,NNE,16,13.0,16.0,34,-99.99,,,-99.99,104.599998,,2013-09-10 00:21:00,
2013-09-09 18:42:00,75.0,48.0,-100.00,NNE,12,6.0,13.0,38,-99.99,,,-99.99,170.800003,,2013-09-10 00:42:00,
2013-09-09 19:21:00,75.0,51.0,-100.00,NNE,19,10.0,12.0,43,-99.99,,,-99.99,82.300003,,2013-09-10 01:21:00,
2013-09-09 19:42:00,74.0,44.0,-100.00,NNW,328,10.0,12.0,34,-99.99,,,-99.99,35.720001,,2013-09-10 01:42:00,
2013-09-09 20:12:00,72.0,47.0,-100.00,North,3,6.0,6.0,41,-99.99,,,-99.99,6.310000,,2013-09-10 02:12:00,
2013-09-09 20:42:00,71.0,50.0,-100.00,NE,47,4.0,5.0,47,-99.99,,,-99.99,0.180000,,2013-09-10 02:42:00,
2013-09-09 21:22:00,70.0,51.0,-100.00,NNW,347,2.0,3.0,50,-99.99,,,-99.99,0.030000,,2013-09-10 03:22:00,
2013-09-09 21:44:00,69.0,52.0,-100.00,WNW,283,0.0,1.0,55,-99.99,,,-99.99,0.090000,,2013-09-10 03:44:00,
2013-09-09 22:24:00,66.0,52.0,-100.00,SSE,153,1.0,2.0,61,-99.99,,,-99.99,0.040000,,2013-09-10 04:24:00,
2013-09-09 23:13:00,65.0,54.0,-100.00,North,7,0.0,2.0,67,-99.99,,,-99.99,0.100000,,2013-09-10 05:13:00,
2013-09-09 23:43:00,64.0,54.0,-100.00,NNW,346,1.0,2.0,69,-99.99,,,-99.99,0.060000,,2013-09-10 05:43:00,